Time,TemperatureF,DewpointF,PressureIn,WindDirection,WindDirectionDegrees,WindSpeedMPH,WindSpeedGustMPH,Humidity,HourlyPrecipIn,Conditions,Clouds,dailyrainin,SoftwareType,DateUTC
2017-11-20 00:00:00,45.8,41.5,29.54,SE,126,22.0,22.0,85,0.00,,,0.07,Wunderground v.1.15,2017-11-20 08:00:00,
2017-11-20 00:06:00,45.6,41.4,29.54,SE,142,23.0,25.0,85,0.00,,,0.00,Wunderground v.1.15,2017-11-20 08:06:00,
2017-11-20 00:12:00,45.6,41.4,29.54,SE,141,22.0,27.0,85,0.00,,,0.00,Wunderground v.1.15,2017-11-20 08:12:00,
2017-11-20 00:18:00,45.6,41.4,29.53,SE,142,20.0,27.0,85,0.00,,,0.00,Wunderground v.1.15,2017-11-20 08:18:00,
2017-11-20 00:24:00,45.6,41.4,29.53,SE,144,20.0,25.0,85,0.00,,,0.01,Wunderground v.1.15,2017-11-20 08:24:00,
2017-11-20 00:30:00,45.7,41.4,29.53,SE,125,21.0,21.0,85,0.00,,,0.01,Wunderground v.1.15,2017-11-20 08:30:00,
2017-11-20 00:42:00,46.0,41.7,29.53,SE,142,21.0,24.0,85,0.00,,,0.02,Wunderground v.1.15,2017-11-20 08:42:00,
2017-11-20 00:54:00,46.3,42.0,29.54,SSE,151,20.0,23.0,85,0.00,,,0.02,Wunderground v.1.15,2017-11-20 08:54:00,
2017-11-20 01:00:00,46.5,42.2,29.54,SSE,159,21.0,21.0,85,0.00,,,0.02,Wunderground v.1.15,2017-11-20 09:00:00,
2017-11-20 01:06:00,46.6,42.3,29.53,SSE,148,22.0,25.0,85,0.00,,,0.02,Wunderground v.1.15,2017-11-20 09:06:00,
2017-11-20 01:18:00,46.8,42.5,29.54,SSE,152,20.0,27.0,85,0.00,,,0.02,Wunderground v.1.15,2017-11-20 09:18:00,
2017-11-20 01:36:00,47.0,42.7,29.53,SE,133,19.0,24.0,85,0.00,,,0.02,Wunderground v.1.15,2017-11-20 09:36:00,
2017-11-20 01:48:00,46.9,42.6,29.53,SSE,147,15.0,25.0,85,0.00,,,0.02,Wunderground v.1.15,2017-11-20 09:48:00,
2017-11-20 01:54:00,46.8,42.5,29.52,SE,135,16.0,16.0,85,0.00,,,0.02,Wunderground v.1.15,2017-11-20 09:54:00,
2017-11-20 02:00:00,46.7,42.4,29.52,SE,140,13.0,19.0,85,0.00,,,0.02,Wunderground v.1.15,2017-11-20 10:00:00,
2017-11-20 02:06:00,46.8,42.5,29.53,ESE,114,13.0,19.0,85,0.00,,,0.02,Wunderground v.1.15,2017-11-20 10:06:00,
2017-11-20 02:12:00,46.9,42.6,29.53,ESE,115,13.0,16.0,85,0.00,,,0.02,Wunderground v.1.15,2017-11-20 10:12:00,
2017-11-20 02:18:00,47.0,42.7,29.54,ESE,110,13.0,16.0,85,0.00,,,0.02,Wunderground v.1.15,2017-11-20 10:18:00,
2017-11-20 02:24:00,47.1,42.8,29.54,SE,124,13.0,18.0,85,0.00,,,0.02,Wunderground v.1.15,2017-11-20 10:24:00,
2017-11-20 02:42:00,47.2,42.9,29.55,SE,129,15.0,18.0,85,0.00,,,0.02,Wunderground v.1.15,2017-11-20 10:42:00,
2017-11-20 02:48:00,47.1,42.8,29.55,SE,143,15.0,18.0,85,0.00,,,0.02,Wunderground v.1.15,2017-11-20 10:48:00,
2017-11-20 02:54:00,47.0,42.7,29.55,SE,141,14.0,16.0,85,0.00,,,0.02,Wunderground v.1.15,2017-11-20 10:54:00,
2017-11-20 03:06:00,46.9,42.6,29.55,SSE,155,13.0,14.0,85,0.00,,,0.02,Wunderground v.1.15,2017-11-20 11:06:00,
2017-11-20 03:12:00,46.9,42.6,29.55,SSE,164,11.0,13.0,85,0.00,,,0.02,Wunderground v.1.15,2017-11-20 11:12:00,
2017-11-20 03:24:00,46.7,42.4,29.55,SE,146,11.0,17.0,85,0.00,,,0.02,Wunderground v.1.15,2017-11-20 11:24:00,
2017-11-20 03:30:00,46.5,42.2,29.54,SE,145,12.0,14.0,85,0.00,,,0.02,Wunderground v.1.15,2017-11-20 11:30:00,
2017-11-20 03:36:00,46.4,42.1,29.52,SE,136,11.0,14.0,85,0.00,,,0.02,Wunderground v.1.15,2017-11-20 11:36:00,
2017-11-20 03:54:00,46.2,41.9,29.54,SSE,154,10.0,13.0,85,0.00,,,0.02,Wunderground v.1.15,2017-11-20 11:54:00,
2017-11-20 04:00:00,46.2,41.9,29.53,SSE,153,10.0,13.0,85,0.00,,,0.02,Wunderground v.1.15,2017-11-20 12:00:00,
2017-11-20 04:06:00,46.2,41.9,29.53,SSE,150,9.0,13.0,85,0.00,,,0.02,Wunderground v.1.15,2017-11-20 12:06:00,
2017-11-20 04:12:00,46.2,41.9,29.53,SE,133,8.0,8.0,85,0.00,,,0.02,Wunderground v.1.15,2017-11-20 12:12:00,
2017-11-20 04:18:00,46.1,41.8,29.53,SE,133,7.0,11.0,85,0.00,,,0.02,Wunderground v.1.15,2017-11-20 12:18:00,
2017-11-20 04:24:00,46.2,41.9,29.54,SE,133,5.0,7.0,85,0.00,,,0.02,Wunderground v.1.15,2017-11-20 12:24:00,
2017-11-20 04:30:00,46.2,41.9,29.54,SE,130,5.0,10.0,85,0.00,,,0.02,Wunderground v.1.15,2017-11-20 12:30:00,
2017-11-20 04:36:00,46.2,41.9,29.53,SE,135,5.0,10.0,85,0.00,,,0.02,Wunderground v.1.15,2017-11-20 12:36:00,
2017-11-20 04:42:00,46.2,41.9,29.54,SE,134,6.0,8.0,85,0.00,,,0.02,Wunderground v.1.15,2017-11-20 12:42:00,
2017-11-20 04:48:00,46.2,41.9,29.54,SE,134,7.0,8.0,85,0.00,,,0.02,Wunderground v.1.15,2017-11-20 12:48:00,
2017-11-20 04:54:00,46.2,41.9,29.53,SE,134,6.0,7.0,85,0.00,,,0.03,Wunderground v.1.15,2017-11-20 12:54:00,
2017-11-20 05:00:00,46.2,41.9,29.53,SE,135,5.0,5.0,85,0.00,,,0.03,Wunderground v.1.15,2017-11-20 13:00:00,
2017-11-20 05:06:00,46.2,41.9,29.53,SE,135,3.0,5.0,85,0.00,,,0.03,Wunderground v.1.15,2017-11-20 13:06:00,
2017-11-20 05:12:00,46.2,41.9,29.53,SE,135,3.0,3.0,85,0.00,,,0.03,Wunderground v.1.15,2017-11-20 13:12:00,
2017-11-20 05:18:00,46.2,41.9,29.53,SE,134,2.0,3.0,85,0.00,,,0.04,Wunderground v.1.15,2017-11-20 13:18:00,
2017-11-20 05:24:00,46.1,41.8,29.53,SE,135,1.0,2.0,85,0.00,,,0.04,Wunderground v.1.15,2017-11-20 13:24:00,
2017-11-20 05:30:00,46.1,41.8,29.53,SE,134,0.0,0.0,85,0.00,,,0.04,Wunderground v.1.15,2017-11-20 13:30:00,
2017-11-20 05:36:00,46.0,41.7,29.53,SE,135,1.0,1.0,85,0.00,,,0.04,Wunderground v.1.15,2017-11-20 13:36:00,
2017-11-20 05:42:00,46.1,41.8,29.53,SE,135,1.0,3.0,85,0.00,,,0.04,Wunderground v.1.15,2017-11-20 13:42:00,
2017-11-20 05:48:00,46.1,41.8,29.54,SE,135,2.0,3.0,85,0.00,,,0.05,Wunderground v.1.15,2017-11-20 13:48:00,
2017-11-20 05:54:00,46.1,41.8,29.55,SE,135,2.0,4.0,85,0.13,,,0.06,Wunderground v.1.15,2017-11-20 13:54:00,
2017-11-20 06:00:00,46.1,41.8,29.54,SE,134,2.0,2.0,85,0.21,,,0.08,Wunderground v.1.15,2017-11-20 14:00:00,
2017-11-20 06:06:00,46.2,41.6,29.53,SE,135,1.0,2.0,84,0.20,,,0.10,Wunderground v.1.15,2017-11-20 14:06:00,
2017-11-20 06:12:00,46.2,41.6,29.53,SE,134,1.0,3.0,84,0.09,,,0.11,Wunderground v.1.15,2017-11-20 14:12:00,
2017-11-20 06:18:00,46.1,41.5,29.53,SE,134,2.0,4.0,84,0.08,,,0.11,Wunderground v.1.15,2017-11-20 14:18:00,
2017-11-20 06:24:00,46.0,41.4,29.53,SE,134,3.0,3.0,84,0.08,,,0.12,Wunderground v.1.15,2017-11-20 14:24:00,
2017-11-20 06:30:00,46.0,41.4,29.52,SE,135,2.0,2.0,84,0.05,,,0.12,Wunderground v.1.15,2017-11-20 14:30:00,
2017-11-20 06:36:00,46.0,41.4,29.53,SE,137,2.0,4.0,84,0.00,,,0.13,Wunderground v.1.15,2017-11-20 14:36:00,
2017-11-20 06:42:00,46.0,41.4,29.54,SE,137,2.0,3.0,84,0.00,,,0.13,Wunderground v.1.15,2017-11-20 14:42:00,
2017-11-20 06:48:00,46.0,41.4,29.54,SE,137,3.0,5.0,84,0.08,,,0.14,Wunderground v.1.15,2017-11-20 14:48:00,
2017-11-20 06:54:00,46.0,41.4,29.55,SE,138,4.0,4.0,84,0.08,,,0.15,Wunderground v.1.15,2017-11-20 14:54:00,
2017-11-20 07:00:00,46.0,41.4,29.55,SE,137,3.0,3.0,84,0.07,,,0.15,Wunderground v.1.15,2017-11-20 15:00:00,
2017-11-20 07:06:00,46.0,41.4,29.55,SE,138,3.0,4.0,84,0.06,,,0.16,Wunderground v.1.15,2017-11-20 15:06:00,
2017-11-20 07:12:00,46.0,41.4,29.55,SE,138,2.0,4.0,84,0.06,,,0.16,Wunderground v.1.15,2017-11-20 15:12:00,
2017-11-20 07:18:00,46.2,41.6,29.55,SE,140,3.0,5.0,84,0.04,,,0.17,Wunderground v.1.15,2017-11-20 15:18:00,
2017-11-20 07:24:00,46.3,41.7,29.57,SE,142,4.0,4.0,84,0.04,,,0.17,Wunderground v.1.15,2017-11-20 15:24:00,
2017-11-20 07:30:00,46.3,41.7,29.57,SSE,153,5.0,5.0,84,0.06,,,0.18,Wunderground v.1.15,2017-11-20 15:30:00,
2017-11-20 07:48:00,46.6,42.0,29.56,SSE,165,4.0,6.0,84,0.04,,,0.19,Wunderground v.1.15,2017-11-20 15:48:00,
2017-11-20 08:00:00,46.8,42.2,29.57,South,186,4.0,4.0,84,0.06,,,0.20,Wunderground v.1.15,2017-11-20 16:00:00,
2017-11-20 08:06:00,46.9,42.3,29.57,South,191,4.0,4.0,84,0.04,,,0.20,Wunderground v.1.15,2017-11-20 16:06:00,
2017-11-20 08:12:00,46.9,42.3,29.57,West,259,6.0,12.0,84,0.00,,,0.21,Wunderground v.1.15,2017-11-20 16:12:00,
2017-11-20 08:18:00,46.9,42.3,29.57,West,273,8.0,12.0,84,0.00,,,0.21,Wunderground v.1.15,2017-11-20 16:18:00,
2017-11-20 08:24:00,46.9,42.3,29.58,West,280,8.0,9.0,84,0.00,,,0.21,Wunderground v.1.15,2017-11-20 16:24:00,
2017-11-20 08:30:00,46.9,42.3,29.59,West,279,8.0,8.0,84,0.00,,,0.21,Wunderground v.1.15,2017-11-20 16:30:00,
2017-11-20 08:36:00,46.9,42.3,29.58,WNW,287,10.0,13.0,84,0.00,,,0.21,Wunderground v.1.15,2017-11-20 16:36:00,
2017-11-20 08:48:00,47.0,42.4,29.59,WNW,283,10.0,11.0,84,0.00,,,0.21,Wunderground v.1.15,2017-11-20 16:48:00,
2017-11-20 08:54:00,46.9,42.3,29.59,NNW,347,5.0,8.0,84,0.00,,,0.21,Wunderground v.1.15,2017-11-20 16:54:00,
2017-11-20 09:00:00,46.8,42.2,29.59,North,351,3.0,3.0,84,0.00,,,0.21,Wunderground v.1.15,2017-11-20 17:00:00,
2017-11-20 09:06:00,46.7,42.1,29.59,North,9,6.0,12.0,84,0.00,,,0.21,Wunderground v.1.15,2017-11-20 17:06:00,
2017-11-20 09:12:00,46.7,42.1,29.60,North,5,6.0,7.0,84,0.00,,,0.21,Wunderground v.1.15,2017-11-20 17:12:00,
2017-11-20 09:24:00,47.0,42.4,29.62,NNE,13,3.0,4.0,84,0.00,,,0.21,Wunderground v.1.15,2017-11-20 17:24:00,
2017-11-20 09:36:00,47.4,42.8,29.64,NNE,12,3.0,3.0,84,0.00,,,0.21,Wunderground v.1.15,2017-11-20 17:36:00,
2017-11-20 09:42:00,47.2,42.6,29.64,NNE,12,2.0,3.0,84,0.00,,,0.21,Wunderground v.1.15,2017-11-20 17:42:00,
2017-11-20 09:48:00,47.2,42.6,29.65,North,11,3.0,3.0,84,0.00,,,0.21,Wunderground v.1.15,2017-11-20 17:48:00,
2017-11-20 09:54:00,47.1,42.5,29.65,North,11,2.0,3.0,84,0.00,,,0.21,Wunderground v.1.15,2017-11-20 17:54:00,
2017-11-20 10:00:00,47.0,42.4,29.65,WNW,302,3.0,13.0,84,0.00,,,0.21,Wunderground v.1.15,2017-11-20 18:00:00,
2017-11-20 10:06:00,45.9,41.3,29.66,NW,309,8.0,13.0,84,0.00,,,0.22,Wunderground v.1.15,2017-11-20 18:06:00,
2017-11-20 10:18:00,46.1,41.5,29.67,WNW,284,8.0,15.0,84,0.00,,,0.22,Wunderground v.1.15,2017-11-20 18:18:00,
2017-11-20 10:24:00,46.2,41.6,29.69,WNW,287,10.0,14.0,84,0.00,,,0.22,Wunderground v.1.15,2017-11-20 18:24:00,
2017-11-20 10:30:00,46.3,41.7,29.69,West,281,10.0,12.0,84,0.00,,,0.22,Wunderground v.1.15,2017-11-20 18:30:00,
2017-11-20 10:36:00,46.4,41.8,29.69,WNW,290,9.0,12.0,84,0.00,,,0.22,Wunderground v.1.15,2017-11-20 18:36:00,
2017-11-20 10:42:00,46.6,42.0,29.70,WNW,290,9.0,10.0,84,0.00,,,0.22,Wunderground v.1.15,2017-11-20 18:42:00,
2017-11-20 10:48:00,46.7,42.1,29.70,WNW,288,9.0,14.0,84,0.00,,,0.22,Wunderground v.1.15,2017-11-20 18:48:00,
2017-11-20 10:54:00,47.1,42.5,29.70,WNW,297,10.0,15.0,84,0.00,,,0.22,Wunderground v.1.15,2017-11-20 18:54:00,
2017-11-20 11:00:00,47.1,42.5,29.71,WNW,285,11.0,11.0,84,0.00,,,0.22,Wunderground v.1.15,2017-11-20 19:00:00,
2017-11-20 11:12:00,47.1,42.5,29.71,WNW,303,11.0,15.0,84,0.00,,,0.22,Wunderground v.1.15,2017-11-20 19:12:00,
2017-11-20 11:18:00,47.2,42.6,29.72,WNW,285,12.0,16.0,84,0.00,,,0.22,Wunderground v.1.15,2017-11-20 19:18:00,
2017-11-20 11:30:00,47.4,43.1,29.73,WNW,283,11.0,11.0,85,0.00,,,0.22,Wunderground v.1.15,2017-11-20 19:30:00,
2017-11-20 11:36:00,47.9,43.3,29.73,West,265,10.0,12.0,84,0.00,,,0.22,Wunderground v.1.15,2017-11-20 19:36:00,
2017-11-20 11:42:00,48.0,43.4,29.73,West,279,10.0,10.0,84,0.00,,,0.22,Wunderground v.1.15,2017-11-20 19:42:00,
2017-11-20 11:48:00,48.0,43.4,29.74,West,269,9.0,11.0,84,0.00,,,0.22,Wunderground v.1.15,2017-11-20 19:48:00,
2017-11-20 11:54:00,47.9,43.3,29.75,WSW,257,9.0,16.0,84,0.00,,,0.22,Wunderground v.1.15,2017-11-20 19:54:00,
2017-11-20 12:00:00,48.1,43.5,29.76,WNW,288,10.0,10.0,84,0.00,,,0.22,Wunderground v.1.15,2017-11-20 20:00:00,
2017-11-20 12:06:00,47.9,43.3,29.76,West,265,9.0,12.0,84,0.00,,,0.22,Wunderground v.1.15,2017-11-20 20:06:00,
2017-11-20 12:12:00,48.2,43.3,29.76,WNW,300,11.0,19.0,83,0.00,,,0.22,Wunderground v.1.15,2017-11-20 20:12:00,
2017-11-20 12:24:00,47.9,42.7,29.77,West,265,17.0,19.0,82,0.00,,,0.22,Wunderground v.1.15,2017-11-20 20:24:00,
2017-11-20 12:42:00,47.9,42.3,29.77,West,280,17.0,19.0,81,0.00,,,0.22,Wunderground v.1.15,2017-11-20 20:42:00,
2017-11-20 12:48:00,48.1,42.5,29.78,SW,236,18.0,19.0,81,0.00,,,0.22,Wunderground v.1.15,2017-11-20 20:48:00,
2017-11-20 13:12:00,48.0,42.1,29.79,WNW,298,17.0,23.0,80,0.00,,,0.22,Wunderground v.1.15,2017-11-20 21:12:00,
2017-11-20 13:18:00,47.9,42.0,29.80,West,271,18.0,31.0,80,0.00,,,0.22,Wunderground v.1.15,2017-11-20 21:18:00,
2017-11-20 13:24:00,47.9,42.0,29.80,WSW,238,18.0,22.0,80,0.00,,,0.22,Wunderground v.1.15,2017-11-20 21:24:00,
2017-11-20 13:30:00,47.9,41.7,29.80,WNW,289,19.0,24.0,79,0.00,,,0.22,Wunderground v.1.15,2017-11-20 21:30:00,
2017-11-20 13:36:00,48.0,41.8,29.81,WNW,287,20.0,30.0,79,0.00,,,0.22,Wunderground v.1.15,2017-11-20 21:36:00,
2017-11-20 13:48:00,48.1,41.9,29.81,West,279,20.0,23.0,79,0.00,,,0.22,Wunderground v.1.15,2017-11-20 21:48:00,
2017-11-20 13:54:00,48.2,41.3,29.82,NW,314,20.0,24.0,77,0.00,,,0.22,Wunderground v.1.15,2017-11-20 21:54:00,
2017-11-20 14:00:00,48.2,42.0,29.83,WNW,286,21.0,21.0,79,0.00,,,0.22,Wunderground v.1.15,2017-11-20 22:00:00,
2017-11-20 14:12:00,48.2,42.0,29.83,WNW,299,18.0,18.0,79,0.00,,,0.22,Wunderground v.1.15,2017-11-20 22:12:00,
2017-11-20 14:18:00,48.2,42.0,29.84,West,269,17.0,18.0,79,0.00,,,0.22,Wunderground v.1.15,2017-11-20 22:18:00,
2017-11-20 14:30:00,48.3,42.1,29.85,WNW,300,17.0,17.0,79,0.00,,,0.22,Wunderground v.1.15,2017-11-20 22:30:00,
2017-11-20 14:54:00,48.2,43.3,29.86,WNW,287,17.0,20.0,83,0.00,,,0.22,Wunderground v.1.15,2017-11-20 22:54:00,
2017-11-20 15:00:00,48.3,42.1,29.88,WNW,286,17.0,19.0,79,0.00,,,0.22,Wunderground v.1.15,2017-11-20 23:00:00,
2017-11-20 15:12:00,48.3,42.1,29.88,West,279,12.0,13.0,79,0.00,,,0.22,Wunderground v.1.15,2017-11-20 23:12:00,
2017-11-20 15:18:00,48.2,42.0,29.88,WNW,298,10.0,13.0,79,0.00,,,0.22,Wunderground v.1.15,2017-11-20 23:18:00,
2017-11-20 15:24:00,48.3,42.1,29.89,NW,306,6.0,9.0,79,0.00,,,0.22,Wunderground v.1.15,2017-11-20 23:24:00,
2017-11-20 15:36:00,48.2,42.0,29.89,West,275,7.0,8.0,79,0.00,,,0.22,Wunderground v.1.15,2017-11-20 23:36:00,
2017-11-20 15:42:00,48.1,41.9,29.89,West,280,6.0,7.0,79,0.00,,,0.22,Wunderground v.1.15,2017-11-20 23:42:00,
2017-11-20 15:48:00,48.1,41.9,29.90,WNW,282,6.0,7.0,79,0.00,,,0.22,Wunderground v.1.15,2017-11-20 23:48:00,
2017-11-20 16:12:00,48.4,42.5,29.91,WNW,292,5.0,7.0,80,0.00,,,0.22,Wunderground v.1.15,2017-11-21 00:12:00,
2017-11-20 16:24:00,48.1,42.2,29.92,NNW,327,4.0,10.0,80,0.00,,,0.22,Wunderground v.1.15,2017-11-21 00:24:00,
2017-11-20 16:30:00,48.1,42.2,29.92,WNW,290,4.0,12.0,80,0.00,,,0.22,Wunderground v.1.15,2017-11-21 00:30:00,
2017-11-20 16:36:00,48.1,42.2,29.93,WNW,303,6.0,12.0,80,0.00,,,0.22,Wunderground v.1.15,2017-11-21 00:36:00,
2017-11-20 16:48:00,48.1,42.2,29.94,WNW,296,5.0,14.0,80,0.00,,,0.22,Wunderground v.1.15,2017-11-21 00:48:00,
2017-11-20 16:54:00,48.0,42.1,29.94,WNW,292,4.0,13.0,80,0.00,,,0.22,Wunderground v.1.15,2017-11-21 00:54:00,
2017-11-20 17:00:00,47.6,41.1,29.94,NW,316,4.0,5.0,78,0.00,,,0.22,Wunderground v.1.15,2017-11-21 01:00:00,
2017-11-20 17:10:00,47.5,40.6,29.94,WNW,301,5.0,5.0,77,0.00,,,0.22,Wunderground v.1.15,2017-11-21 01:10:00,
2017-11-20 17:16:00,47.5,40.6,29.95,NW,306,4.0,5.0,77,0.00,,,0.22,Wunderground v.1.15,2017-11-21 01:16:00,
2017-11-20 17:34:00,47.3,40.8,29.96,NW,306,3.0,7.0,78,0.00,,,0.22,Wunderground v.1.15,2017-11-21 01:34:00,
2017-11-20 17:40:00,47.4,41.2,29.97,NW,306,3.0,4.0,79,0.00,,,0.22,Wunderground v.1.15,2017-11-21 01:40:00,
2017-11-20 17:46:00,47.4,41.2,29.97,NW,306,3.0,4.0,79,0.00,,,0.22,Wunderground v.1.15,2017-11-21 01:46:00,
2017-11-20 17:52:00,47.4,41.5,29.97,NW,306,2.0,3.0,80,0.00,,,0.22,Wunderground v.1.15,2017-11-21 01:52:00,